sensor_id;sensor_type;location;lat;lon;timestamp;P1;durP1;ratioP1;P2;durP2;ratioP2
17494;SDS011;8864;51.970;4.614;2022-07-24T00:01:12;1.67;;;1.55;;
17494;SDS011;8864;51.970;4.614;2022-07-24T00:03:39;1.70;;;1.40;;
17494;SDS011;8864;51.970;4.614;2022-07-24T00:06:05;3.15;;;1.52;;
17494;SDS011;8864;51.970;4.614;2022-07-24T00:08:32;1.92;;;1.60;;
17494;SDS011;8864;51.970;4.614;2022-07-24T00:11:00;2.33;;;1.55;;
17494;SDS011;8864;51.970;4.614;2022-07-24T00:13:27;2.30;;;1.65;;
17494;SDS011;8864;51.970;4.614;2022-07-24T00:15:54;1.63;;;1.40;;
17494;SDS011;8864;51.970;4.614;2022-07-24T00:18:21;2.08;;;1.75;;
17494;SDS011;8864;51.970;4.614;2022-07-24T00:20:47;2.17;;;1.52;;
17494;SDS011;8864;51.970;4.614;2022-07-24T00:23:14;2.05;;;1.48;;
17494;SDS011;8864;51.970;4.614;2022-07-24T00:25:41;2.25;;;1.60;;
17494;SDS011;8864;51.970;4.614;2022-07-24T00:28:09;2.22;;;1.60;;
17494;SDS011;8864;51.970;4.614;2022-07-24T00:30:36;1.45;;;1.35;;
17494;SDS011;8864;51.970;4.614;2022-07-24T00:33:03;1.98;;;1.52;;
17494;SDS011;8864;51.970;4.614;2022-07-24T00:35:30;1.70;;;1.40;;
17494;SDS011;8864;51.970;4.614;2022-07-24T00:37:56;2.33;;;2.00;;
17494;SDS011;8864;51.970;4.614;2022-07-24T00:40:23;1.70;;;1.50;;
17494;SDS011;8864;51.970;4.614;2022-07-24T00:42:50;2.03;;;1.60;;
17494;SDS011;8864;51.970;4.614;2022-07-24T00:45:19;2.72;;;1.65;;
17494;SDS011;8864;51.970;4.614;2022-07-24T00:47:46;1.85;;;1.60;;
17494;SDS011;8864;51.970;4.614;2022-07-24T00:50:12;1.98;;;1.65;;
17494;SDS011;8864;51.970;4.614;2022-07-24T00:52:39;1.90;;;1.60;;
17494;SDS011;8864;51.970;4.614;2022-07-24T00:55:07;2.47;;;1.67;;
17494;SDS011;8864;51.970;4.614;2022-07-24T00:57:34;2.08;;;1.50;;
17494;SDS011;8864;51.970;4.614;2022-07-24T01:00:01;2.40;;;1.80;;
17494;SDS011;8864;51.970;4.614;2022-07-24T01:02:32;2.08;;;1.88;;
17494;SDS011;8864;51.970;4.614;2022-07-24T01:04:59;1.92;;;1.60;;
17494;SDS011;8864;51.970;4.614;2022-07-24T01:07:26;2.63;;;1.70;;
17494;SDS011;8864;51.970;4.614;2022-07-24T01:09:52;2.50;;;1.70;;
17494;SDS011;8864;51.970;4.614;2022-07-24T01:12:19;1.95;;;1.70;;
17494;SDS011;8864;51.970;4.614;2022-07-24T01:14:47;2.30;;;2.00;;
17494;SDS011;8864;51.970;4.614;2022-07-24T01:17:13;2.17;;;1.67;;
17494;SDS011;8864;51.970;4.614;2022-07-24T01:19:41;2.05;;;1.85;;
17494;SDS011;8864;51.970;4.614;2022-07-24T01:22:10;1.90;;;1.48;;
17494;SDS011;8864;51.970;4.614;2022-07-24T01:24:36;2.30;;;1.90;;
17494;SDS011;8864;51.970;4.614;2022-07-24T01:27:03;2.10;;;1.90;;
17494;SDS011;8864;51.970;4.614;2022-07-24T01:29:30;3.25;;;2.05;;
17494;SDS011;8864;51.970;4.614;2022-07-24T01:31:57;4.43;;;2.15;;
17494;SDS011;8864;51.970;4.614;2022-07-24T01:34:24;2.00;;;1.73;;
17494;SDS011;8864;51.970;4.614;2022-07-24T01:36:51;2.80;;;1.95;;
17494;SDS011;8864;51.970;4.614;2022-07-24T01:39:19;2.10;;;1.90;;
17494;SDS011;8864;51.970;4.614;2022-07-24T01:41:46;2.15;;;1.90;;
17494;SDS011;8864;51.970;4.614;2022-07-24T01:44:13;2.20;;;1.90;;
17494;SDS011;8864;51.970;4.614;2022-07-24T01:46:39;2.03;;;1.60;;
17494;SDS011;8864;51.970;4.614;2022-07-24T01:49:06;2.00;;;1.70;;
17494;SDS011;8864;51.970;4.614;2022-07-24T01:51:33;3.10;;;2.05;;
17494;SDS011;8864;51.970;4.614;2022-07-24T01:54:00;2.20;;;1.70;;
17494;SDS011;8864;51.970;4.614;2022-07-24T01:56:28;2.28;;;2.03;;
17494;SDS011;8864;51.970;4.614;2022-07-24T01:58:55;2.40;;;1.77;;
17494;SDS011;8864;51.970;4.614;2022-07-24T02:01:22;3.05;;;1.95;;
17494;SDS011;8864;51.970;4.614;2022-07-24T02:03:49;2.38;;;1.88;;
17494;SDS011;8864;51.970;4.614;2022-07-24T02:06:16;2.78;;;1.90;;
17494;SDS011;8864;51.970;4.614;2022-07-24T02:08:43;3.15;;;2.10;;
17494;SDS011;8864;51.970;4.614;2022-07-24T02:11:10;1.98;;;1.65;;
17494;SDS011;8864;51.970;4.614;2022-07-24T02:13:38;1.95;;;1.73;;
17494;SDS011;8864;51.970;4.614;2022-07-24T02:16:05;2.13;;;1.67;;
17494;SDS011;8864;51.970;4.614;2022-07-24T02:18:33;2.40;;;2.08;;
17494;SDS011;8864;51.970;4.614;2022-07-24T02:20:59;4.03;;;2.38;;
17494;SDS011;8864;51.970;4.614;2022-07-24T02:23:26;2.15;;;1.95;;
17494;SDS011;8864;51.970;4.614;2022-07-24T02:25:53;2.70;;;1.90;;
17494;SDS011;8864;51.970;4.614;2022-07-24T02:28:20;2.60;;;1.83;;
17494;SDS011;8864;51.970;4.614;2022-07-24T02:30:48;1.90;;;1.70;;
17494;SDS011;8864;51.970;4.614;2022-07-24T02:33:16;2.33;;;1.90;;
17494;SDS011;8864;51.970;4.614;2022-07-24T02:35:42;2.22;;;1.95;;
17494;SDS011;8864;51.970;4.614;2022-07-24T02:38:09;3.15;;;1.80;;
17494;SDS011;8864;51.970;4.614;2022-07-24T02:40:36;2.28;;;1.95;;
17494;SDS011;8864;51.970;4.614;2022-07-24T02:43:03;2.78;;;1.90;;
17494;SDS011;8864;51.970;4.614;2022-07-24T02:45:29;2.03;;;1.77;;
17494;SDS011;8864;51.970;4.614;2022-07-24T02:47:58;2.78;;;2.05;;
17494;SDS011;8864;51.970;4.614;2022-07-24T02:50:25;2.25;;;1.90;;
17494;SDS011;8864;51.970;4.614;2022-07-24T02:52:56;3.15;;;1.88;;
17494;SDS011;8864;51.970;4.614;2022-07-24T02:55:23;2.13;;;1.70;;
17494;SDS011;8864;51.970;4.614;2022-07-24T02:57:53;2.40;;;2.00;;
17494;SDS011;8864;51.970;4.614;2022-07-24T03:00:20;2.58;;;1.92;;
17494;SDS011;8864;51.970;4.614;2022-07-24T03:02:46;2.70;;;2.08;;
17494;SDS011;8864;51.970;4.614;2022-07-24T03:05:15;2.08;;;1.90;;
17494;SDS011;8864;51.970;4.614;2022-07-24T03:07:42;2.40;;;1.85;;
17494;SDS011;8864;51.970;4.614;2022-07-24T03:10:10;2.58;;;2.00;;
17494;SDS011;8864;51.970;4.614;2022-07-24T03:12:37;1.88;;;1.77;;
17494;SDS011;8864;51.970;4.614;2022-07-24T03:15:04;3.10;;;1.85;;
17494;SDS011;8864;51.970;4.614;2022-07-24T03:17:32;2.55;;;1.88;;
17494;SDS011;8864;51.970;4.614;2022-07-24T03:19:59;2.38;;;2.05;;
17494;SDS011;8864;51.970;4.614;2022-07-24T03:22:27;2.30;;;2.00;;
17494;SDS011;8864;51.970;4.614;2022-07-24T03:24:54;2.70;;;2.10;;
17494;SDS011;8864;51.970;4.614;2022-07-24T03:27:20;2.40;;;1.88;;
17494;SDS011;8864;51.970;4.614;2022-07-24T03:29:47;3.33;;;2.17;;
17494;SDS011;8864;51.970;4.614;2022-07-24T03:32:14;2.83;;;2.05;;
17494;SDS011;8864;51.970;4.614;2022-07-24T03:34:41;2.28;;;2.00;;
17494;SDS011;8864;51.970;4.614;2022-07-24T03:37:08;2.20;;;1.88;;
17494;SDS011;8864;51.970;4.614;2022-07-24T03:39:36;2.90;;;2.22;;
17494;SDS011;8864;51.970;4.614;2022-07-24T03:42:03;2.40;;;2.00;;
17494;SDS011;8864;51.970;4.614;2022-07-24T03:44:30;2.75;;;1.67;;
17494;SDS011;8864;51.970;4.614;2022-07-24T03:46:56;2.80;;;2.13;;
17494;SDS011;8864;51.970;4.614;2022-07-24T03:49:23;2.88;;;2.22;;
17494;SDS011;8864;51.970;4.614;2022-07-24T03:51:50;2.35;;;2.00;;
17494;SDS011;8864;51.970;4.614;2022-07-24T03:54:17;3.40;;;1.90;;
17494;SDS011;8864;51.970;4.614;2022-07-24T03:56:45;2.42;;;1.90;;
17494;SDS011;8864;51.970;4.614;2022-07-24T03:59:12;2.63;;;2.05;;
17494;SDS011;8864;51.970;4.614;2022-07-24T04:01:38;2.55;;;2.15;;
17494;SDS011;8864;51.970;4.614;2022-07-24T04:04:05;2.85;;;2.03;;
17494;SDS011;8864;51.970;4.614;2022-07-24T04:06:32;2.53;;;2.10;;
17494;SDS011;8864;51.970;4.614;2022-07-24T04:09:00;2.67;;;1.70;;
17494;SDS011;8864;51.970;4.614;2022-07-24T04:11:28;2.47;;;2.00;;
17494;SDS011;8864;51.970;4.614;2022-07-24T04:13:56;2.78;;;1.95;;
17494;SDS011;8864;51.970;4.614;2022-07-24T04:16:23;2.28;;;1.60;;
17494;SDS011;8864;51.970;4.614;2022-07-24T04:18:50;2.75;;;1.88;;
17494;SDS011;8864;51.970;4.614;2022-07-24T04:21:17;3.03;;;1.85;;
17494;SDS011;8864;51.970;4.614;2022-07-24T04:23:44;3.38;;;2.20;;
17494;SDS011;8864;51.970;4.614;2022-07-24T04:26:10;2.55;;;2.00;;
17494;SDS011;8864;51.970;4.614;2022-07-24T04:28:37;2.20;;;1.70;;
17494;SDS011;8864;51.970;4.614;2022-07-24T04:31:08;2.10;;;1.77;;
17494;SDS011;8864;51.970;4.614;2022-07-24T04:33:35;2.15;;;1.80;;
17494;SDS011;8864;51.970;4.614;2022-07-24T04:36:02;3.20;;;1.95;;
17494;SDS011;8864;51.970;4.614;2022-07-24T04:38:31;1.90;;;1.70;;
17494;SDS011;8864;51.970;4.614;2022-07-24T04:40:58;1.85;;;1.70;;
17494;SDS011;8864;51.970;4.614;2022-07-24T04:43:24;2.70;;;2.00;;
17494;SDS011;8864;51.970;4.614;2022-07-24T04:45:51;2.08;;;1.88;;
17494;SDS011;8864;51.970;4.614;2022-07-24T04:48:19;2.00;;;1.77;;
17494;SDS011;8864;51.970;4.614;2022-07-24T04:50:46;2.00;;;1.80;;
17494;SDS011;8864;51.970;4.614;2022-07-24T04:53:13;2.30;;;1.67;;
17494;SDS011;8864;51.970;4.614;2022-07-24T04:55:40;2.00;;;1.70;;
17494;SDS011;8864;51.970;4.614;2022-07-24T04:58:06;2.25;;;1.60;;
17494;SDS011;8864;51.970;4.614;2022-07-24T05:00:33;2.53;;;2.05;;
17494;SDS011;8864;51.970;4.614;2022-07-24T05:03:00;2.58;;;1.90;;
17494;SDS011;8864;51.970;4.614;2022-07-24T05:05:28;2.22;;;1.65;;
17494;SDS011;8864;51.970;4.614;2022-07-24T05:07:55;2.60;;;2.00;;
17494;SDS011;8864;51.970;4.614;2022-07-24T05:10:22;1.67;;;1.58;;
17494;SDS011;8864;51.970;4.614;2022-07-24T05:12:49;2.10;;;1.80;;
17494;SDS011;8864;51.970;4.614;2022-07-24T05:15:15;1.67;;;1.58;;
17494;SDS011;8864;51.970;4.614;2022-07-24T05:17:42;2.60;;;1.80;;
17494;SDS011;8864;51.970;4.614;2022-07-24T05:20:09;2.40;;;1.77;;
17494;SDS011;8864;51.970;4.614;2022-07-24T05:22:38;1.95;;;1.63;;
17494;SDS011;8864;51.970;4.614;2022-07-24T05:25:05;2.05;;;1.83;;
17494;SDS011;8864;51.970;4.614;2022-07-24T05:27:32;2.97;;;1.85;;
17494;SDS011;8864;51.970;4.614;2022-07-24T05:30:00;2.13;;;1.85;;
17494;SDS011;8864;51.970;4.614;2022-07-24T05:32:27;1.75;;;1.40;;
17494;SDS011;8864;51.970;4.614;2022-07-24T05:34:54;2.67;;;1.88;;
17494;SDS011;8864;51.970;4.614;2022-07-24T05:37:20;2.67;;;1.88;;
17494;SDS011;8864;51.970;4.614;2022-07-24T05:39:49;1.92;;;1.50;;
17494;SDS011;8864;51.970;4.614;2022-07-24T05:42:15;2.33;;;1.77;;
17494;SDS011;8864;51.970;4.614;2022-07-24T05:44:42;2.97;;;1.98;;
17494;SDS011;8864;51.970;4.614;2022-07-24T05:47:09;2.15;;;1.80;;
17494;SDS011;8864;51.970;4.614;2022-07-24T05:49:36;3.17;;;2.10;;
17494;SDS011;8864;51.970;4.614;2022-07-24T05:52:03;2.45;;;1.60;;
17494;SDS011;8864;51.970;4.614;2022-07-24T05:54:30;2.08;;;1.80;;
17494;SDS011;8864;51.970;4.614;2022-07-24T05:56:58;1.92;;;1.75;;
17494;SDS011;8864;51.970;4.614;2022-07-24T05:59:25;2.67;;;1.75;;
17494;SDS011;8864;51.970;4.614;2022-07-24T06:01:51;1.80;;;1.60;;
17494;SDS011;8864;51.970;4.614;2022-07-24T06:04:18;1.75;;;1.58;;
17494;SDS011;8864;51.970;4.614;2022-07-24T06:06:45;2.55;;;1.70;;
17494;SDS011;8864;51.970;4.614;2022-07-24T06:09:12;2.50;;;1.80;;
17494;SDS011;8864;51.970;4.614;2022-07-24T06:11:38;2.03;;;1.52;;
17494;SDS011;8864;51.970;4.614;2022-07-24T06:14:07;1.90;;;1.70;;
17494;SDS011;8864;51.970;4.614;2022-07-24T06:16:33;2.25;;;1.77;;
17494;SDS011;8864;51.970;4.614;2022-07-24T06:19:00;1.60;;;1.50;;
17494;SDS011;8864;51.970;4.614;2022-07-24T06:21:27;3.03;;;1.60;;
17494;SDS011;8864;51.970;4.614;2022-07-24T06:23:54;2.58;;;1.90;;
17494;SDS011;8864;51.970;4.614;2022-07-24T06:26:21;2.15;;;1.70;;
17494;SDS011;8864;51.970;4.614;2022-07-24T06:28:47;2.17;;;1.60;;
17494;SDS011;8864;51.970;4.614;2022-07-24T06:31:16;2.42;;;1.70;;
17494;SDS011;8864;51.970;4.614;2022-07-24T06:33:42;1.83;;;1.58;;
17494;SDS011;8864;51.970;4.614;2022-07-24T06:36:09;1.85;;;1.63;;
17494;SDS011;8864;51.970;4.614;2022-07-24T06:38:36;3.58;;;1.50;;
17494;SDS011;8864;51.970;4.614;2022-07-24T06:41:03;1.50;;;1.40;;
17494;SDS011;8864;51.970;4.614;2022-07-24T06:43:30;1.60;;;1.50;;
17494;SDS011;8864;51.970;4.614;2022-07-24T06:45:57;1.70;;;1.33;;
17494;SDS011;8864;51.970;4.614;2022-07-24T06:48:25;4.05;;;1.80;;
17494;SDS011;8864;51.970;4.614;2022-07-24T06:50:52;1.70;;;1.40;;
17494;SDS011;8864;51.970;4.614;2022-07-24T06:53:18;2.20;;;1.60;;
17494;SDS011;8864;51.970;4.614;2022-07-24T06:55:45;2.13;;;1.50;;
17494;SDS011;8864;51.970;4.614;2022-07-24T06:58:12;1.70;;;1.60;;
17494;SDS011;8864;51.970;4.614;2022-07-24T07:00:39;2.20;;;1.50;;
17494;SDS011;8864;51.970;4.614;2022-07-24T07:03:06;1.85;;;1.60;;
17494;SDS011;8864;51.970;4.614;2022-07-24T07:05:34;1.73;;;1.40;;
17494;SDS011;8864;51.970;4.614;2022-07-24T07:08:01;2.72;;;1.50;;
17494;SDS011;8864;51.970;4.614;2022-07-24T07:10:28;2.05;;;1.73;;
17494;SDS011;8864;51.970;4.614;2022-07-24T07:12:55;1.73;;;1.48;;
17494;SDS011;8864;51.970;4.614;2022-07-24T07:15:22;2.40;;;1.60;;
17494;SDS011;8864;51.970;4.614;2022-07-24T07:17:49;1.85;;;1.50;;
17494;SDS011;8864;51.970;4.614;2022-07-24T07:20:16;1.40;;;1.30;;
17494;SDS011;8864;51.970;4.614;2022-07-24T07:22:44;1.73;;;1.40;;
17494;SDS011;8864;51.970;4.614;2022-07-24T07:25:11;1.40;;;1.30;;
17494;SDS011;8864;51.970;4.614;2022-07-24T07:27:38;1.88;;;1.42;;
17494;SDS011;8864;51.970;4.614;2022-07-24T07:30:06;2.10;;;1.50;;
17494;SDS011;8864;51.970;4.614;2022-07-24T07:32:34;1.98;;;1.50;;
17494;SDS011;8864;51.970;4.614;2022-07-24T07:35:01;2.28;;;1.80;;
17494;SDS011;8864;51.970;4.614;2022-07-24T07:37:28;2.25;;;1.48;;
17494;SDS011;8864;51.970;4.614;2022-07-24T07:39:56;2.15;;;1.27;;
17494;SDS011;8864;51.970;4.614;2022-07-24T07:42:24;1.73;;;1.42;;
17494;SDS011;8864;51.970;4.614;2022-07-24T07:44:51;1.63;;;1.40;;
17494;SDS011;8864;51.970;4.614;2022-07-24T07:47:17;1.75;;;1.20;;
17494;SDS011;8864;51.970;4.614;2022-07-24T07:49:44;1.50;;;1.17;;
17494;SDS011;8864;51.970;4.614;2022-07-24T07:52:11;2.00;;;1.50;;
17494;SDS011;8864;51.970;4.614;2022-07-24T07:54:38;1.52;;;1.42;;
17494;SDS011;8864;51.970;4.614;2022-07-24T07:57:06;1.55;;;1.20;;
17494;SDS011;8864;51.970;4.614;2022-07-24T07:59:33;2.00;;;1.50;;
17494;SDS011;8864;51.970;4.614;2022-07-24T08:02:00;2.17;;;1.33;;
17494;SDS011;8864;51.970;4.614;2022-07-24T08:04:26;1.65;;;1.27;;
17494;SDS011;8864;51.970;4.614;2022-07-24T08:06:53;1.67;;;1.33;;
17494;SDS011;8864;51.970;4.614;2022-07-24T08:09:20;1.60;;;1.15;;
17494;SDS011;8864;51.970;4.614;2022-07-24T08:11:47;1.40;;;1.30;;
17494;SDS011;8864;51.970;4.614;2022-07-24T08:14:15;1.83;;;1.25;;
17494;SDS011;8864;51.970;4.614;2022-07-24T08:16:42;1.42;;;1.33;;
17494;SDS011;8864;51.970;4.614;2022-07-24T08:19:09;2.58;;;1.60;;
17494;SDS011;8864;51.970;4.614;2022-07-24T08:21:36;1.33;;;1.00;;
17494;SDS011;8864;51.970;4.614;2022-07-24T08:24:03;1.95;;;1.27;;
17494;SDS011;8864;51.970;4.614;2022-07-24T08:26:30;1.80;;;1.30;;
17494;SDS011;8864;51.970;4.614;2022-07-24T08:28:57;1.40;;;1.20;;
17494;SDS011;8864;51.970;4.614;2022-07-24T08:31:26;1.27;;;1.10;;
17494;SDS011;8864;51.970;4.614;2022-07-24T08:33:52;2.75;;;1.23;;
17494;SDS011;8864;51.970;4.614;2022-07-24T08:36:19;1.83;;;1.40;;
17494;SDS011;8864;51.970;4.614;2022-07-24T08:38:46;1.35;;;1.25;;
17494;SDS011;8864;51.970;4.614;2022-07-24T08:41:13;1.55;;;1.30;;
17494;SDS011;8864;51.970;4.614;2022-07-24T08:43:41;1.33;;;1.20;;
17494;SDS011;8864;51.970;4.614;2022-07-24T08:46:09;2.00;;;1.38;;
17494;SDS011;8864;51.970;4.614;2022-07-24T08:48:38;1.77;;;1.40;;
17494;SDS011;8864;51.970;4.614;2022-07-24T08:51:08;1.60;;;1.30;;
17494;SDS011;8864;51.970;4.614;2022-07-24T08:53:35;0.93;;;0.80;;
17494;SDS011;8864;51.970;4.614;2022-07-24T08:56:02;1.42;;;1.10;;
17494;SDS011;8864;51.970;4.614;2022-07-24T08:58:29;1.35;;;1.25;;
17494;SDS011;8864;51.970;4.614;2022-07-24T09:00:56;1.50;;;1.20;;
17494;SDS011;8864;51.970;4.614;2022-07-24T09:03:23;1.42;;;1.30;;
17494;SDS011;8864;51.970;4.614;2022-07-24T09:05:55;1.27;;;1.17;;
17494;SDS011;8864;51.970;4.614;2022-07-24T09:08:23;1.92;;;1.30;;
17494;SDS011;8864;51.970;4.614;2022-07-24T09:10:53;1.30;;;1.10;;
17494;SDS011;8864;51.970;4.614;2022-07-24T09:13:24;1.35;;;1.10;;
17494;SDS011;8864;51.970;4.614;2022-07-24T09:15:55;1.10;;;1.00;;
17494;SDS011;8864;51.970;4.614;2022-07-24T09:18:25;1.58;;;1.20;;
17494;SDS011;8864;51.970;4.614;2022-07-24T09:20:55;1.30;;;1.20;;
17494;SDS011;8864;51.970;4.614;2022-07-24T09:23:23;1.35;;;0.98;;
17494;SDS011;8864;51.970;4.614;2022-07-24T09:25:50;1.60;;;1.20;;
17494;SDS011;8864;51.970;4.614;2022-07-24T09:28:18;1.40;;;1.10;;
17494;SDS011;8864;51.970;4.614;2022-07-24T09:30:46;1.05;;;0.90;;
17494;SDS011;8864;51.970;4.614;2022-07-24T09:33:14;1.63;;;1.23;;
17494;SDS011;8864;51.970;4.614;2022-07-24T09:35:42;1.35;;;1.10;;
17494;SDS011;8864;51.970;4.614;2022-07-24T09:38:12;0.88;;;0.88;;
17494;SDS011;8864;51.970;4.614;2022-07-24T09:40:42;1.88;;;1.30;;
17494;SDS011;8864;51.970;4.614;2022-07-24T09:43:13;1.48;;;1.10;;
17494;SDS011;8864;51.970;4.614;2022-07-24T09:45:50;1.45;;;1.20;;
17494;SDS011;8864;51.970;4.614;2022-07-24T09:48:19;1.65;;;1.17;;
17494;SDS011;8864;51.970;4.614;2022-07-24T09:50:49;1.10;;;1.00;;
17494;SDS011;8864;51.970;4.614;2022-07-24T09:53:18;2.20;;;0.90;;
17494;SDS011;8864;51.970;4.614;2022-07-24T09:55:55;1.80;;;1.10;;
17494;SDS011;8864;51.970;4.614;2022-07-24T09:58:27;1.92;;;1.27;;
17494;SDS011;8864;51.970;4.614;2022-07-24T10:00:56;0.90;;;0.80;;
17494;SDS011;8864;51.970;4.614;2022-07-24T10:03:26;1.50;;;0.98;;
17494;SDS011;8864;51.970;4.614;2022-07-24T10:05:55;1.40;;;1.00;;
17494;SDS011;8864;51.970;4.614;2022-07-24T10:08:24;0.90;;;0.90;;
17494;SDS011;8864;51.970;4.614;2022-07-24T10:10:52;1.25;;;1.15;;
17494;SDS011;8864;51.970;4.614;2022-07-24T10:13:19;0.93;;;0.80;;
17494;SDS011;8864;51.970;4.614;2022-07-24T10:15:51;1.80;;;1.15;;
17494;SDS011;8864;51.970;4.614;2022-07-24T10:18:20;1.50;;;1.10;;
17494;SDS011;8864;51.970;4.614;2022-07-24T10:20:49;1.27;;;0.98;;
17494;SDS011;8864;51.970;4.614;2022-07-24T10:23:29;1.45;;;1.08;;
17494;SDS011;8864;51.970;4.614;2022-07-24T10:26:07;0.88;;;0.82;;
17494;SDS011;8864;51.970;4.614;2022-07-24T10:28:41;0.98;;;0.88;;
17494;SDS011;8864;51.970;4.614;2022-07-24T10:31:13;1.00;;;0.90;;
17494;SDS011;8864;51.970;4.614;2022-07-24T10:33:40;1.15;;;1.05;;
17494;SDS011;8864;51.970;4.614;2022-07-24T10:36:14;1.08;;;0.98;;
17494;SDS011;8864;51.970;4.614;2022-07-24T10:38:51;1.15;;;1.02;;
17494;SDS011;8864;51.970;4.614;2022-07-24T10:41:23;1.23;;;1.05;;
17494;SDS011;8864;51.970;4.614;2022-07-24T10:49:37;0.80;;;0.80;;
17494;SDS011;8864;51.970;4.614;2022-07-24T10:52:11;1.05;;;0.90;;
17494;SDS011;8864;51.970;4.614;2022-07-24T10:54:47;1.10;;;0.90;;
17494;SDS011;8864;51.970;4.614;2022-07-24T10:57:14;0.93;;;0.80;;
17494;SDS011;8864;51.970;4.614;2022-07-24T10:59:41;2.60;;;1.08;;
17494;SDS011;8864;51.970;4.614;2022-07-24T11:02:24;1.17;;;0.98;;
17494;SDS011;8864;51.970;4.614;2022-07-24T11:10:56;1.02;;;0.80;;
17494;SDS011;8864;51.970;4.614;2022-07-24T11:13:41;0.88;;;0.80;;
17494;SDS011;8864;51.970;4.614;2022-07-24T11:16:20;0.98;;;0.80;;
17494;SDS011;8864;51.970;4.614;2022-07-24T11:22:09;1.50;;;1.10;;
17494;SDS011;8864;51.970;4.614;2022-07-24T11:24:40;0.93;;;0.80;;
17494;SDS011;8864;51.970;4.614;2022-07-24T11:27:17;0.82;;;0.80;;
17494;SDS011;8864;51.970;4.614;2022-07-24T11:29:46;0.98;;;0.90;;
17494;SDS011;8864;51.970;4.614;2022-07-24T11:32:18;0.85;;;0.77;;
17494;SDS011;8864;51.970;4.614;2022-07-24T11:34:46;1.10;;;0.90;;
17494;SDS011;8864;51.970;4.614;2022-07-24T11:37:14;1.25;;;0.90;;
17494;SDS011;8864;51.970;4.614;2022-07-24T11:39:42;1.02;;;0.90;;
17494;SDS011;8864;51.970;4.614;2022-07-24T11:42:11;1.00;;;0.90;;
17494;SDS011;8864;51.970;4.614;2022-07-24T11:44:41;0.82;;;0.80;;
17494;SDS011;8864;51.970;4.614;2022-07-24T11:47:10;1.00;;;0.88;;
17494;SDS011;8864;51.970;4.614;2022-07-24T11:49:43;0.80;;;0.60;;
17494;SDS011;8864;51.970;4.614;2022-07-24T11:52:14;1.98;;;0.88;;
17494;SDS011;8864;51.970;4.614;2022-07-24T11:54:43;1.00;;;0.90;;
17494;SDS011;8864;51.970;4.614;2022-07-24T11:57:18;0.82;;;0.80;;
17494;SDS011;8864;51.970;4.614;2022-07-24T11:59:48;1.35;;;1.00;;
17494;SDS011;8864;51.970;4.614;2022-07-24T12:02:16;1.27;;;0.80;;
17494;SDS011;8864;51.970;4.614;2022-07-24T12:04:44;1.08;;;0.82;;
17494;SDS011;8864;51.970;4.614;2022-07-24T12:07:13;1.08;;;0.90;;
17494;SDS011;8864;51.970;4.614;2022-07-24T12:09:45;1.17;;;1.00;;
17494;SDS011;8864;51.970;4.614;2022-07-24T12:15:02;0.70;;;0.70;;
17494;SDS011;8864;51.970;4.614;2022-07-24T12:17:30;0.63;;;0.63;;
17494;SDS011;8864;51.970;4.614;2022-07-24T12:19:59;0.93;;;0.80;;
17494;SDS011;8864;51.970;4.614;2022-07-24T12:22:27;1.13;;;0.93;;
17494;SDS011;8864;51.970;4.614;2022-07-24T12:24:55;1.10;;;0.80;;
17494;SDS011;8864;51.970;4.614;2022-07-24T12:27:34;0.90;;;0.70;;
17494;SDS011;8864;51.970;4.614;2022-07-24T12:30:14;1.15;;;0.80;;
17494;SDS011;8864;51.970;4.614;2022-07-24T12:32:56;1.08;;;0.90;;
17494;SDS011;8864;51.970;4.614;2022-07-24T12:35:25;0.77;;;0.77;;
17494;SDS011;8864;51.970;4.614;2022-07-24T12:37:53;1.15;;;1.00;;
17494;SDS011;8864;51.970;4.614;2022-07-24T12:40:24;1.08;;;0.82;;
17494;SDS011;8864;51.970;4.614;2022-07-24T12:43:00;0.63;;;0.63;;
17494;SDS011;8864;51.970;4.614;2022-07-24T12:45:30;0.90;;;0.80;;
17494;SDS011;8864;51.970;4.614;2022-07-24T12:48:17;0.80;;;0.70;;
17494;SDS011;8864;51.970;4.614;2022-07-24T12:53:30;0.80;;;0.80;;
17494;SDS011;8864;51.970;4.614;2022-07-24T12:56:05;1.10;;;1.00;;
17494;SDS011;8864;51.970;4.614;2022-07-24T12:58:56;0.63;;;0.60;;
17494;SDS011;8864;51.970;4.614;2022-07-24T13:01:26;0.77;;;0.70;;
17494;SDS011;8864;51.970;4.614;2022-07-24T13:03:56;1.00;;;0.90;;
17494;SDS011;8864;51.970;4.614;2022-07-24T13:06:31;1.13;;;0.90;;
17494;SDS011;8864;51.970;4.614;2022-07-24T13:08:58;0.90;;;0.60;;
17494;SDS011;8864;51.970;4.614;2022-07-24T13:11:26;1.00;;;0.80;;
17494;SDS011;8864;51.970;4.614;2022-07-24T13:13:52;1.20;;;0.90;;
17494;SDS011;8864;51.970;4.614;2022-07-24T13:16:19;0.70;;;0.57;;
17494;SDS011;8864;51.970;4.614;2022-07-24T13:18:49;0.82;;;0.82;;
17494;SDS011;8864;51.970;4.614;2022-07-24T13:21:17;1.25;;;0.70;;
17494;SDS011;8864;51.970;4.614;2022-07-24T13:23:45;0.73;;;0.73;;
17494;SDS011;8864;51.970;4.614;2022-07-24T13:26:11;1.20;;;1.02;;
17494;SDS011;8864;51.970;4.614;2022-07-24T13:28:38;1.00;;;0.80;;
17494;SDS011;8864;51.970;4.614;2022-07-24T13:31:05;1.05;;;0.90;;
17494;SDS011;8864;51.970;4.614;2022-07-24T13:33:32;1.10;;;1.00;;
17494;SDS011;8864;51.970;4.614;2022-07-24T13:36:00;0.80;;;0.70;;
17494;SDS011;8864;51.970;4.614;2022-07-24T13:38:27;0.90;;;0.70;;
17494;SDS011;8864;51.970;4.614;2022-07-24T13:40:54;1.33;;;0.70;;
17494;SDS011;8864;51.970;4.614;2022-07-24T13:43:21;1.13;;;0.85;;
17494;SDS011;8864;51.970;4.614;2022-07-24T13:45:48;0.70;;;0.70;;
17494;SDS011;8864;51.970;4.614;2022-07-24T13:48:16;0.85;;;0.80;;
17494;SDS011;8864;51.970;4.614;2022-07-24T13:50:43;0.70;;;0.70;;
17494;SDS011;8864;51.970;4.614;2022-07-24T13:53:11;0.70;;;0.70;;
17494;SDS011;8864;51.970;4.614;2022-07-24T13:55:38;0.82;;;0.80;;
17494;SDS011;8864;51.970;4.614;2022-07-24T13:58:05;1.00;;;0.80;;
17494;SDS011;8864;51.970;4.614;2022-07-24T14:00:32;1.00;;;0.70;;
17494;SDS011;8864;51.970;4.614;2022-07-24T14:02:59;0.95;;;0.80;;
17494;SDS011;8864;51.970;4.614;2022-07-24T14:05:26;1.15;;;0.73;;
17494;SDS011;8864;51.970;4.614;2022-07-24T14:07:53;1.60;;;0.85;;
17494;SDS011;8864;51.970;4.614;2022-07-24T14:10:22;0.88;;;0.70;;
17494;SDS011;8864;51.970;4.614;2022-07-24T14:12:49;0.80;;;0.80;;
17494;SDS011;8864;51.970;4.614;2022-07-24T14:15:16;1.02;;;0.80;;
17494;SDS011;8864;51.970;4.614;2022-07-24T14:17:43;0.82;;;0.60;;
17494;SDS011;8864;51.970;4.614;2022-07-24T14:20:11;0.90;;;0.63;;
17494;SDS011;8864;51.970;4.614;2022-07-24T14:22:40;1.30;;;0.80;;
17494;SDS011;8864;51.970;4.614;2022-07-24T14:25:08;0.70;;;0.70;;
17494;SDS011;8864;51.970;4.614;2022-07-24T14:27:36;0.95;;;0.80;;
17494;SDS011;8864;51.970;4.614;2022-07-24T14:30:04;0.95;;;0.90;;
17494;SDS011;8864;51.970;4.614;2022-07-24T14:32:32;1.00;;;0.70;;
17494;SDS011;8864;51.970;4.614;2022-07-24T14:34:59;1.15;;;0.68;;
17494;SDS011;8864;51.970;4.614;2022-07-24T14:37:30;0.85;;;0.80;;
17494;SDS011;8864;51.970;4.614;2022-07-24T14:39:56;0.60;;;0.60;;
17494;SDS011;8864;51.970;4.614;2022-07-24T14:42:23;0.63;;;0.63;;
17494;SDS011;8864;51.970;4.614;2022-07-24T14:44:51;0.80;;;0.70;;
17494;SDS011;8864;51.970;4.614;2022-07-24T14:47:18;0.80;;;0.73;;
17494;SDS011;8864;51.970;4.614;2022-07-24T14:49:45;1.50;;;0.80;;
17494;SDS011;8864;51.970;4.614;2022-07-24T14:52:12;0.82;;;0.70;;
17494;SDS011;8864;51.970;4.614;2022-07-24T14:54:39;0.80;;;0.80;;
17494;SDS011;8864;51.970;4.614;2022-07-24T14:57:06;0.60;;;0.60;;
17494;SDS011;8864;51.970;4.614;2022-07-24T14:59:33;0.70;;;0.70;;
17494;SDS011;8864;51.970;4.614;2022-07-24T15:02:01;0.80;;;0.63;;
17494;SDS011;8864;51.970;4.614;2022-07-24T15:04:28;0.50;;;0.50;;
17494;SDS011;8864;51.970;4.614;2022-07-24T15:06:55;1.23;;;0.70;;
17494;SDS011;8864;51.970;4.614;2022-07-24T15:09:22;0.70;;;0.70;;
17494;SDS011;8864;51.970;4.614;2022-07-24T15:11:49;0.60;;;0.60;;
17494;SDS011;8864;51.970;4.614;2022-07-24T15:14:16;0.70;;;0.70;;
17494;SDS011;8864;51.970;4.614;2022-07-24T15:16:43;0.70;;;0.70;;
17494;SDS011;8864;51.970;4.614;2022-07-24T15:19:11;0.60;;;0.60;;
17494;SDS011;8864;51.970;4.614;2022-07-24T15:21:38;0.68;;;0.68;;
17494;SDS011;8864;51.970;4.614;2022-07-24T15:24:05;1.20;;;0.80;;
17494;SDS011;8864;51.970;4.614;2022-07-24T15:26:33;0.90;;;0.65;;